createdAt,value
2022-10-29T00:01:14.026Z,17.20
2022-10-29T00:03:42.569Z,17.20
2022-10-29T00:06:15.186Z,17.30
2022-10-29T00:08:43.651Z,17.30
2022-10-29T00:11:16.024Z,17.30
2022-10-29T00:13:45.345Z,17.20
2022-10-29T00:16:20.310Z,17.20
2022-10-29T00:18:48.864Z,17.20
2022-10-29T00:21:21.006Z,17.20
2022-10-29T00:23:50.227Z,17.20
2022-10-29T00:26:21.233Z,17.20
2022-10-29T00:28:53.104Z,17.20
2022-10-29T00:31:24.254Z,17.20
2022-10-29T00:33:54.256Z,17.10
2022-10-29T00:36:26.258Z,17.00
2022-10-29T00:38:54.652Z,17.00
2022-10-29T00:41:26.541Z,16.90
2022-10-29T00:44:28.298Z,16.80
2022-10-29T00:47:12.050Z,16.70
2022-10-29T00:49:43.260Z,16.60
2022-10-29T00:52:14.685Z,16.60
2022-10-29T00:54:47.924Z,16.60
2022-10-29T00:57:26.187Z,16.60
2022-10-29T00:59:55.346Z,16.60
2022-10-29T01:02:24.844Z,16.50
2022-10-29T01:04:54.666Z,16.50
2022-10-29T01:07:25.449Z,16.50
2022-10-29T01:09:53.720Z,16.50
2022-10-29T01:13:03.605Z,16.40
2022-10-29T01:15:45.527Z,16.40
2022-10-29T01:18:23.465Z,16.30
2022-10-29T01:21:37.288Z,16.20
2022-10-29T01:24:46.928Z,16.10
2022-10-29T01:27:59.363Z,16.00
2022-10-29T01:31:14.547Z,16.00
2022-10-29T01:33:55.142Z,16.00
2022-10-29T01:36:32.682Z,16.00
2022-10-29T01:39:10.225Z,16.10
2022-10-29T01:41:50.665Z,16.10
2022-10-29T01:44:34.365Z,16.00
2022-10-29T01:47:09.126Z,16.00
2022-10-29T01:49:43.049Z,15.90
2022-10-29T01:52:16.433Z,15.80
2022-10-29T01:54:47.309Z,15.70
2022-10-29T01:57:30.854Z,15.70
2022-10-29T02:00:05.768Z,15.70
2022-10-29T02:03:00.636Z,15.60
2022-10-29T02:05:36.284Z,15.60
2022-10-29T02:08:22.143Z,15.50
2022-10-29T02:11:00.356Z,15.50
2022-10-29T02:13:34.082Z,15.40
2022-10-29T02:16:07.405Z,15.30
2022-10-29T02:18:43.485Z,15.30
2022-10-29T02:21:11.612Z,15.20
2022-10-29T02:23:39.930Z,15.20
2022-10-29T02:26:08.167Z,15.20
2022-10-29T02:28:36.264Z,15.20
2022-10-29T02:31:04.771Z,15.20
2022-10-29T02:33:33.018Z,15.20
2022-10-29T02:36:03.761Z,15.10
2022-10-29T02:38:31.985Z,15.10
2022-10-29T02:41:00.161Z,15.10
2022-10-29T02:43:28.291Z,15.00
2022-10-29T02:46:12.995Z,15.00
2022-10-29T02:48:41.112Z,15.00
2022-10-29T02:51:11.012Z,14.90
2022-10-29T02:53:39.605Z,14.90
2022-10-29T02:56:09.197Z,14.90
2022-10-29T02:58:37.548Z,14.90
2022-10-29T03:01:06.910Z,14.90
2022-10-29T03:03:35.299Z,14.80
2022-10-29T03:06:03.593Z,14.90
2022-10-29T03:08:33.144Z,14.90
2022-10-29T03:11:01.363Z,14.90
2022-10-29T03:13:29.606Z,14.90
2022-10-29T03:15:58.022Z,14.90
2022-10-29T03:18:26.230Z,15.00
2022-10-29T03:20:54.483Z,14.90
2022-10-29T03:23:23.108Z,15.00
2022-10-29T03:25:56.007Z,14.90
2022-10-29T03:28:27.797Z,15.00
2022-10-29T03:30:56.062Z,15.00
2022-10-29T03:33:25.839Z,14.90
2022-10-29T03:35:58.501Z,15.00
2022-10-29T03:38:27.364Z,15.00
2022-10-29T03:40:57.350Z,15.00
2022-10-29T03:43:26.319Z,15.10
2022-10-29T03:45:56.465Z,15.20
2022-10-29T03:48:26.368Z,15.20
2022-10-29T03:50:58.515Z,15.20
2022-10-29T03:53:27.296Z,15.30
2022-10-29T03:55:58.089Z,15.30
2022-10-29T03:58:27.954Z,15.30
2022-10-29T04:00:58.586Z,15.30
2022-10-29T04:03:28.270Z,15.30
2022-10-29T04:05:57.830Z,15.30
2022-10-29T04:08:25.982Z,15.30
2022-10-29T04:10:55.969Z,15.30
2022-10-29T04:13:24.076Z,15.30
2022-10-29T04:15:55.824Z,15.20
2022-10-29T04:18:24.347Z,15.20
2022-10-29T04:29:19.502Z,15.10
2022-10-29T04:31:47.651Z,15.10
2022-10-29T04:34:15.907Z,15.10
2022-10-29T04:36:44.058Z,15.10
2022-10-29T04:39:12.196Z,15.00
2022-10-29T04:41:41.658Z,15.00
2022-10-29T04:44:09.822Z,15.00
2022-10-29T04:46:37.990Z,15.00
2022-10-29T04:49:06.238Z,15.00
2022-10-29T04:51:34.425Z,15.00
2022-10-29T04:54:02.844Z,15.00
2022-10-29T04:56:31.594Z,15.00
2022-10-29T04:59:01.042Z,14.90
2022-10-29T05:01:29.265Z,15.00
2022-10-29T05:03:59.987Z,15.10
2022-10-29T05:06:28.610Z,15.10
2022-10-29T05:08:56.703Z,15.00
2022-10-29T05:11:24.811Z,15.10
2022-10-29T05:13:52.935Z,15.20
2022-10-29T05:16:22.341Z,15.20
2022-10-29T05:18:50.437Z,15.10
2022-10-29T05:21:18.602Z,15.10
2022-10-29T05:23:46.790Z,15.10
2022-10-29T05:26:15.119Z,15.10
2022-10-29T05:28:43.228Z,15.20
2022-10-29T05:31:11.333Z,15.20
2022-10-29T05:33:40.789Z,15.20
2022-10-29T05:36:09.236Z,15.20
2022-10-29T05:38:37.855Z,15.20
2022-10-29T05:41:06.381Z,15.30
2022-10-29T05:43:34.453Z,15.30
2022-10-29T05:46:04.473Z,15.30
2022-10-29T05:48:32.699Z,15.30
2022-10-29T05:51:02.166Z,15.20
2022-10-29T05:53:30.254Z,15.30
2022-10-29T05:56:00.267Z,15.30
2022-10-29T05:58:28.401Z,15.30
2022-10-29T06:00:56.528Z,15.30
2022-10-29T06:03:25.021Z,15.20
2022-10-29T06:05:53.356Z,15.20
2022-10-29T06:08:22.937Z,15.30
2022-10-29T06:10:51.061Z,15.20
2022-10-29T06:13:22.350Z,15.20
2022-10-29T06:15:58.259Z,15.10
2022-10-29T06:18:27.264Z,15.10
2022-10-29T06:20:55.904Z,15.10
2022-10-29T06:23:25.309Z,15.10
2022-10-29T06:25:53.481Z,15.10
2022-10-29T06:28:21.695Z,15.10
2022-10-29T06:30:52.101Z,15.20
2022-10-29T06:33:21.576Z,15.10
2022-10-29T06:35:49.919Z,15.00
2022-10-29T06:38:18.180Z,14.90
2022-10-29T06:40:53.993Z,14.90
2022-10-29T06:43:22.167Z,15.00
2022-10-29T06:45:50.998Z,14.90
2022-10-29T06:48:22.449Z,14.90
2022-10-29T06:50:51.393Z,14.90
2022-10-29T06:53:20.130Z,14.90
2022-10-29T06:55:49.809Z,14.90
2022-10-29T06:58:21.196Z,14.90
2022-10-29T07:00:49.755Z,14.90
2022-10-29T07:03:20.553Z,14.90
2022-10-29T07:05:55.616Z,14.90
2022-10-29T07:08:24.194Z,15.00
2022-10-29T07:10:55.279Z,15.00
2022-10-29T07:13:23.678Z,15.00
2022-10-29T07:15:52.105Z,15.00
2022-10-29T07:18:20.380Z,15.00
2022-10-29T07:20:48.498Z,15.10
2022-10-29T07:23:16.805Z,15.10
2022-10-29T07:25:45.054Z,15.20
2022-10-29T07:28:17.304Z,15.20
2022-10-29T07:30:46.095Z,15.20
2022-10-29T07:33:14.626Z,15.40
2022-10-29T07:35:43.781Z,15.30
2022-10-29T07:38:13.935Z,15.20
2022-10-29T07:40:49.324Z,15.20
2022-10-29T07:43:20.636Z,15.20
2022-10-29T07:45:51.328Z,15.20
2022-10-29T07:48:21.077Z,15.20
2022-10-29T07:50:50.145Z,15.20
2022-10-29T07:53:18.492Z,15.30
2022-10-29T07:55:53.737Z,15.40
2022-10-29T07:58:24.024Z,15.30
2022-10-29T08:00:52.194Z,15.40
2022-10-29T08:03:20.504Z,15.30
2022-10-29T08:05:55.323Z,15.30
2022-10-29T08:08:25.052Z,15.30
2022-10-29T08:10:53.230Z,15.40
2022-10-29T08:13:22.645Z,15.30
2022-10-29T08:15:50.706Z,15.20
2022-10-29T08:18:19.843Z,15.20
2022-10-29T08:20:48.347Z,15.30
2022-10-29T08:23:16.704Z,15.40
2022-10-29T08:25:45.278Z,15.40
2022-10-29T08:28:15.942Z,15.40
2022-10-29T08:30:50.986Z,15.40
2022-10-29T08:33:20.645Z,15.40
2022-10-29T08:35:48.940Z,15.60
2022-10-29T08:38:17.121Z,15.70
2022-10-29T08:41:11.668Z,15.80
2022-10-29T08:44:12.012Z,15.90
2022-10-29T08:46:48.257Z,15.90
2022-10-29T08:49:21.877Z,15.90
2022-10-29T08:51:57.841Z,15.80
2022-10-29T08:54:32.608Z,15.90
2022-10-29T08:57:09.659Z,15.90
2022-10-29T08:59:47.232Z,15.90
2022-10-29T09:02:19.989Z,15.80
2022-10-29T09:04:48.086Z,15.80
2022-10-29T09:08:02.331Z,15.80
2022-10-29T09:10:41.252Z,15.90
2022-10-29T09:13:34.101Z,15.90
2022-10-29T09:16:24.621Z,16.00
2022-10-29T09:19:13.351Z,16.00
2022-10-29T09:21:56.851Z,16.00
2022-10-29T09:24:34.995Z,16.00
2022-10-29T09:27:14.595Z,16.00
2022-10-29T09:29:59.305Z,16.20
2022-10-29T09:32:36.748Z,16.30
2022-10-29T09:35:14.732Z,16.50
2022-10-29T09:37:49.650Z,16.50
2022-10-29T09:40:31.945Z,16.50
2022-10-29T09:43:07.258Z,16.50
2022-10-29T09:45:51.592Z,16.60
2022-10-29T09:48:31.052Z,16.60
2022-10-29T09:51:18.150Z,16.60
2022-10-29T09:53:46.717Z,16.60
2022-10-29T09:56:14.881Z,16.50
2022-10-29T09:58:48.982Z,16.50
2022-10-29T10:01:17.685Z,16.50
2022-10-29T10:03:54.972Z,16.50
2022-10-29T10:06:24.678Z,16.50
2022-10-29T10:09:04.826Z,16.50
2022-10-29T10:11:39.911Z,16.50
2022-10-29T10:14:18.847Z,16.50
2022-10-29T10:16:47.470Z,16.50
2022-10-29T10:19:24.431Z,16.50
2022-10-29T10:22:02.325Z,16.60
2022-10-29T10:24:33.915Z,16.50
2022-10-29T10:27:02.851Z,16.50
2022-10-29T10:29:31.587Z,16.60
2022-10-29T10:32:16.961Z,16.60
2022-10-29T10:34:45.172Z,16.70
2022-10-29T10:37:20.780Z,16.70
2022-10-29T10:39:55.682Z,16.70
2022-10-29T10:42:28.977Z,16.70
2022-10-29T10:45:02.351Z,16.60
2022-10-29T10:47:37.113Z,16.60
2022-10-29T10:50:14.490Z,16.60
2022-10-29T10:52:44.110Z,16.60
2022-10-29T10:55:24.166Z,16.60
2022-10-29T10:58:03.710Z,16.70
2022-10-29T11:00:40.500Z,16.70
2022-10-29T11:03:19.394Z,16.60
2022-10-29T11:05:56.906Z,16.70
2022-10-29T11:08:34.742Z,16.70
2022-10-29T11:11:11.407Z,16.70
2022-10-29T11:13:42.554Z,16.70
2022-10-29T11:16:18.151Z,16.80
2022-10-29T11:18:58.264Z,16.80
2022-10-29T11:21:35.765Z,16.90
2022-10-29T11:24:19.534Z,16.90
2022-10-29T11:26:54.897Z,16.90
2022-10-29T11:29:33.826Z,17.00
2022-10-29T11:32:12.751Z,17.20
2022-10-29T11:34:52.616Z,17.20
2022-10-29T11:37:32.327Z,17.30
2022-10-29T11:40:06.727Z,17.40
2022-10-29T11:42:36.182Z,17.40
2022-10-29T11:45:04.820Z,17.40
2022-10-29T11:47:56.353Z,17.40
2022-10-29T11:50:37.900Z,17.40
2022-10-29T11:53:26.185Z,17.40
2022-10-29T11:56:08.113Z,17.40
2022-10-29T11:58:46.787Z,17.40
2022-10-29T12:01:29.097Z,17.50
2022-10-29T12:04:22.992Z,17.60
2022-10-29T12:07:18.793Z,17.50
2022-10-29T12:10:42.919Z,17.60
2022-10-29T12:13:32.463Z,17.60
2022-10-29T12:16:35.485Z,17.50
2022-10-29T12:19:42.268Z,17.60
2022-10-29T12:22:27.477Z,17.60
2022-10-29T12:25:15.195Z,17.70
2022-10-29T12:28:00.863Z,17.80
2022-10-29T12:30:36.384Z,17.80
2022-10-29T12:33:16.013Z,17.80
2022-10-29T12:35:57.759Z,17.90
2022-10-29T12:38:39.104Z,17.90
2022-10-29T12:41:15.969Z,18.00
2022-10-29T12:43:45.471Z,18.00
2022-10-29T12:46:30.827Z,18.00
2022-10-29T12:49:15.005Z,18.10
2022-10-29T12:51:52.419Z,18.10
2022-10-29T12:54:36.794Z,18.00
2022-10-29T12:57:07.913Z,18.10
2022-10-29T12:59:38.021Z,18.10
2022-10-29T13:02:43.429Z,18.10
2022-10-29T13:05:42.271Z,18.20
2022-10-29T13:08:34.034Z,18.20
2022-10-29T13:11:03.026Z,18.30
2022-10-29T13:13:51.138Z,18.30
2022-10-29T13:16:27.925Z,18.30
2022-10-29T13:19:24.164Z,18.30
2022-10-29T13:21:58.665Z,18.30
2022-10-29T13:24:28.714Z,18.20
2022-10-29T13:27:34.966Z,18.20
2022-10-29T13:30:23.792Z,18.20
2022-10-29T13:32:51.989Z,18.20
2022-10-29T13:35:42.053Z,18.10
2022-10-29T13:38:17.167Z,18.10
2022-10-29T13:41:21.935Z,18.10
2022-10-29T13:43:58.697Z,18.20
2022-10-29T13:46:47.447Z,18.10
2022-10-29T13:49:25.003Z,18.10
2022-10-29T13:52:00.024Z,18.00
2022-10-29T13:54:40.237Z,18.00
2022-10-29T13:57:21.792Z,18.00
2022-10-29T13:59:56.406Z,18.10
2022-10-29T14:02:46.190Z,18.10
2022-10-29T14:05:21.653Z,18.10
2022-10-29T14:08:08.326Z,18.10
2022-10-29T14:10:46.075Z,18.20
2022-10-29T14:13:30.771Z,18.10
2022-10-29T14:16:04.593Z,18.20
2022-10-29T14:18:34.907Z,18.20
2022-10-29T14:21:06.621Z,18.20
2022-10-29T14:23:36.082Z,18.20
2022-10-29T14:26:04.349Z,18.20
2022-10-29T14:28:33.935Z,18.30
2022-10-29T14:31:05.852Z,18.30
2022-10-29T14:33:37.536Z,18.30
2022-10-29T14:36:16.411Z,18.30
2022-10-29T14:38:50.923Z,18.30
2022-10-29T14:41:22.153Z,18.30
2022-10-29T14:44:04.951Z,18.30
2022-10-29T14:46:36.213Z,18.30
2022-10-29T14:49:14.247Z,18.30
2022-10-29T14:51:51.241Z,18.30
2022-10-29T14:54:26.465Z,18.30
2022-10-29T14:57:00.116Z,18.20
2022-10-29T14:59:32.885Z,18.20
2022-10-29T15:02:24.568Z,18.60
2022-10-29T15:05:02.967Z,18.50
2022-10-29T15:07:36.984Z,18.40
2022-10-29T15:10:23.868Z,18.20
2022-10-29T15:12:53.798Z,18.20
2022-10-29T15:15:30.904Z,18.10
2022-10-29T15:18:03.743Z,18.10
2022-10-29T15:20:44.569Z,18.00
2022-10-29T15:23:21.387Z,18.00
2022-10-29T15:25:55.524Z,18.00
2022-10-29T15:28:27.426Z,17.90
2022-10-29T15:30:55.951Z,17.90
2022-10-29T15:33:29.391Z,17.90
2022-10-29T15:36:01.544Z,17.90
2022-10-29T15:39:18.910Z,17.90
2022-10-29T15:41:51.421Z,17.90
2022-10-29T15:44:39.586Z,17.80
2022-10-29T15:47:29.565Z,17.80
2022-10-29T15:49:57.774Z,17.80
2022-10-29T15:52:32.939Z,17.70
2022-10-29T15:55:03.009Z,17.70
2022-10-29T15:57:35.004Z,17.70
2022-10-29T16:00:06.997Z,17.60
2022-10-29T16:02:35.683Z,17.60
2022-10-29T16:05:04.012Z,17.60
2022-10-29T16:07:32.194Z,17.60
2022-10-29T16:10:01.715Z,17.60
2022-10-29T16:12:29.824Z,17.60
2022-10-29T16:14:59.237Z,17.60
2022-10-29T16:17:29.420Z,17.50
2022-10-29T16:19:57.549Z,17.50
2022-10-29T16:22:30.061Z,17.50
2022-10-29T16:24:58.160Z,17.50
2022-10-29T16:27:26.353Z,17.40
2022-10-29T16:29:54.375Z,17.40
2022-10-29T16:32:25.572Z,17.30
2022-10-29T16:34:53.688Z,17.40
2022-10-29T16:37:22.268Z,17.30
2022-10-29T16:39:50.326Z,17.30
2022-10-29T16:42:31.439Z,17.30
2022-10-29T16:44:59.759Z,17.30
2022-10-29T16:47:29.523Z,17.30
2022-10-29T16:49:57.533Z,17.20
2022-10-29T16:52:29.567Z,17.20
2022-10-29T16:54:58.041Z,17.20
2022-10-29T16:57:26.426Z,17.10
2022-10-29T16:59:54.603Z,17.20
2022-10-29T17:02:22.707Z,17.10
2022-10-29T17:04:52.229Z,17.10
2022-10-29T17:07:20.294Z,17.00
2022-10-29T17:09:48.385Z,17.00
2022-10-29T17:12:16.542Z,17.00
2022-10-29T17:14:44.572Z,16.90
2022-10-29T17:17:12.671Z,16.90
2022-10-29T17:19:40.714Z,16.90
2022-10-29T17:22:14.219Z,16.80
2022-10-29T17:24:42.429Z,16.90
2022-10-29T17:27:11.085Z,16.80
2022-10-29T17:29:40.008Z,16.80
2022-10-29T17:32:09.203Z,16.70
2022-10-29T17:34:37.521Z,16.70
2022-10-29T17:37:06.323Z,16.70
2022-10-29T17:39:35.954Z,16.70
2022-10-29T17:42:04.192Z,16.70
2022-10-29T17:44:33.861Z,16.70
2022-10-29T17:47:01.926Z,16.70
2022-10-29T17:49:30.128Z,16.70
2022-10-29T17:51:58.171Z,16.70
2022-10-29T17:54:27.838Z,16.70
2022-10-29T17:56:57.313Z,16.70
2022-10-29T17:59:25.464Z,16.70
2022-10-29T18:01:53.888Z,16.70
2022-10-29T18:04:22.065Z,16.70
2022-10-29T18:06:50.769Z,16.70
2022-10-29T18:09:21.213Z,16.90
2022-10-29T18:11:50.556Z,16.80
2022-10-29T18:14:20.027Z,16.80
2022-10-29T18:16:48.111Z,16.80
2022-10-29T18:19:17.290Z,16.70
2022-10-29T18:21:45.565Z,16.70
2022-10-29T18:24:13.664Z,16.70
2022-10-29T18:26:41.946Z,16.70
2022-10-29T18:29:12.939Z,16.70
2022-10-29T18:31:44.975Z,16.70
2022-10-29T18:34:15.374Z,16.70
2022-10-29T18:36:43.979Z,16.70
2022-10-29T18:39:12.045Z,16.70
2022-10-29T18:41:40.534Z,16.70
2022-10-29T18:44:09.299Z,16.70
2022-10-29T18:46:37.507Z,16.70
2022-10-29T18:49:06.941Z,16.60
2022-10-29T18:51:35.018Z,16.60
2022-10-29T18:54:03.211Z,16.70
2022-10-29T18:56:32.295Z,16.60
2022-10-29T18:59:01.326Z,16.60
2022-10-29T19:01:32.612Z,16.60
2022-10-29T19:04:03.901Z,16.60
2022-10-29T19:06:36.406Z,16.60
2022-10-29T19:09:08.427Z,16.60
2022-10-29T19:11:37.441Z,16.60
2022-10-29T19:14:08.371Z,16.50
2022-10-29T19:16:36.833Z,16.50
2022-10-29T19:19:07.980Z,16.50
2022-10-29T19:21:39.884Z,16.50
2022-10-29T19:24:16.061Z,16.60
2022-10-29T19:26:44.769Z,16.60
2022-10-29T19:29:14.137Z,16.60
2022-10-29T19:31:44.768Z,16.60
2022-10-29T19:34:12.918Z,16.60
2022-10-29T19:36:42.433Z,16.50
2022-10-29T19:39:10.513Z,16.50
2022-10-29T19:41:38.576Z,16.40
2022-10-29T19:44:06.978Z,16.50
2022-10-29T19:46:35.372Z,16.50
2022-10-29T19:49:03.550Z,16.40
2022-10-29T19:51:31.828Z,16.40
2022-10-29T19:54:03.953Z,16.40
2022-10-29T19:56:32.034Z,16.40
2022-10-29T19:59:00.163Z,16.30
2022-10-29T20:01:28.315Z,16.30
2022-10-29T20:03:57.653Z,16.30
2022-10-29T20:06:25.868Z,16.30
2022-10-29T20:08:53.959Z,16.30
2022-10-29T20:11:23.410Z,16.20
2022-10-29T20:13:52.152Z,16.20
2022-10-29T20:16:22.180Z,16.20
2022-10-29T20:18:50.893Z,16.20
2022-10-29T20:21:19.305Z,16.20
2022-10-29T20:23:47.395Z,16.20
2022-10-29T20:26:15.560Z,16.20
2022-10-29T20:28:44.950Z,16.10
2022-10-29T20:31:24.722Z,16.10
2022-10-29T20:33:54.752Z,16.10
2022-10-29T20:36:24.394Z,16.10
2022-10-29T20:38:53.494Z,16.10
2022-10-29T20:41:22.616Z,16.10
2022-10-29T20:43:55.728Z,16.10
2022-10-29T20:46:25.554Z,16.10
2022-10-29T20:48:53.966Z,16.10
2022-10-29T20:51:22.953Z,16.10
2022-10-29T20:53:51.287Z,16.10
2022-10-29T20:56:19.899Z,16.10
2022-10-29T20:58:48.140Z,16.10
2022-10-29T21:01:20.064Z,16.10
2022-10-29T21:03:50.823Z,16.10
2022-10-29T21:06:19.596Z,16.10
2022-10-29T21:08:49.393Z,16.00
2022-10-29T21:11:20.334Z,16.00
2022-10-29T21:13:48.572Z,16.00
2022-10-29T21:16:20.933Z,16.00
2022-10-29T21:18:53.650Z,16.00
2022-10-29T21:21:21.896Z,16.00
2022-10-29T21:26:24.254Z,16.00
2022-10-29T21:28:54.609Z,15.90
2022-10-29T21:31:25.963Z,15.90
2022-10-29T21:33:56.016Z,15.90
2022-10-29T21:36:24.539Z,15.90
2022-10-29T21:38:53.142Z,15.80
2022-10-29T21:41:21.340Z,15.80
2022-10-29T21:43:49.449Z,15.80
2022-10-29T21:46:17.578Z,15.80
2022-10-29T21:48:47.041Z,15.80
2022-10-29T21:51:17.241Z,15.70
2022-10-29T21:53:45.452Z,15.70
2022-10-29T21:56:15.640Z,15.80
2022-10-29T21:58:44.642Z,15.80
2022-10-29T22:01:16.182Z,15.90
2022-10-29T22:03:47.901Z,15.90
2022-10-29T22:06:21.752Z,16.00
2022-10-29T22:08:55.528Z,15.90
2022-10-29T22:11:24.906Z,15.90
2022-10-29T22:13:53.616Z,15.90
2022-10-29T22:16:22.721Z,15.80
2022-10-29T22:18:52.509Z,15.80
2022-10-29T22:21:23.884Z,15.80
2022-10-29T22:23:54.216Z,15.80
2022-10-29T22:26:27.041Z,15.80
2022-10-29T22:28:55.564Z,15.80
2022-10-29T22:31:25.313Z,15.80
2022-10-29T22:33:55.050Z,15.90
2022-10-29T22:36:26.197Z,15.90
2022-10-29T22:38:55.343Z,15.80
2022-10-29T22:41:26.059Z,15.80
2022-10-29T22:43:55.067Z,15.80
2022-10-29T22:46:23.714Z,15.80
2022-10-29T22:48:52.132Z,15.80
2022-10-29T22:51:24.708Z,15.70
2022-10-29T22:53:54.738Z,15.80
2022-10-29T22:56:26.480Z,15.80
2022-10-29T22:58:55.436Z,15.70
2022-10-29T23:01:26.149Z,15.80
2022-10-29T23:03:54.745Z,15.70
2022-10-29T23:06:25.766Z,15.70
2022-10-29T23:08:56.553Z,15.70
2022-10-29T23:11:28.356Z,15.70
2022-10-29T23:13:59.653Z,15.70
2022-10-29T23:16:31.789Z,15.70
2022-10-29T23:19:03.080Z,15.70
2022-10-29T23:21:33.790Z,15.70
2022-10-29T23:24:01.942Z,15.70
2022-10-29T23:26:30.324Z,15.70
2022-10-29T23:28:58.611Z,15.70
2022-10-29T23:31:29.086Z,15.60
2022-10-29T23:33:59.049Z,15.60
2022-10-29T23:36:29.209Z,15.60
2022-10-29T23:39:02.126Z,15.60
2022-10-29T23:41:32.145Z,15.60
2022-10-29T23:44:00.580Z,15.50
2022-10-29T23:46:28.849Z,15.50
2022-10-29T23:48:57.231Z,15.50
2022-10-29T23:51:25.342Z,15.40
2022-10-29T23:53:56.579Z,15.40
2022-10-29T23:56:27.775Z,15.40
2022-10-29T23:58:56.482Z,15.30
